Argonia, KS

2:16 AM CDT on July 25, 2014 (GMT -0500)
Caldwell Hess (KKSCALDW8) Elev 1165 ft | 37.04 °N, 97.62 °W | Change Station
Active Advisory: Heat Advisory

Current weather conditions updated 13 minutes ago

Clear
Clear
78.7 °F
Feels Like 82 °F
N
3.0
Wind Variable Wind from NW
Gusts 6.0 mph

Today is forecast to be Much Warmer than yesterday.

Today
High -- | Low -- °F
--% Chance of Precip.
Yesterday
High -- | Low -- °F
Precip. -- in
6:30 AM 8:44 PM
Waning Crescent, 2% visible
Pressure 29.90 in
Visibility 10.0 miles
Clouds Scattered Clouds 15000 ft
Heat Index 82 °F
Dew Point 72 °F
Humidity 79%
Rainfall 0.00 in
Snow Depth Not available.
UV 0.0 out of 12
Pollen 5.80 out of 12
Air Quality Not available.
Flu Activity Not available.
METAR KICT 250653Z 17012KT 10SM SCT150 26/22 A2995 RMK AO2 SLP124 T02560217

More Conditions Fewer Conditions

Pressure 29.90 in
Visibility 10.0 miles
Clouds Scattered Clouds 15000 ft
Heat Index 82 °F
Dew Point 72 °F
Humidity 79%
Rainfall 0.00 in
Snow Depth Not available.
UV 0.0 out of 12
Pollen 5.80 out of 12
Air Quality Not available.
Flu Activity Not available.
METAR KICT 250653Z 17012KT 10SM SCT150 26/22 A2995 RMK AO2 SLP124 T02560217

More Conditions Fewer Conditions

10-Day Weather Forecast

Almanac

Astronomy

Jul. 25, 2014 Rise Set
Actual Time 6:30 AM CDT 8:44 PM CDT
Civil Twilight 6:00 AM CDT 9:13 PM CDT
Nautical Twilight 5:24 AM CDT 9:49 PM CDT
Astronomical Twilight 4:45 AM CDT 10:29 PM CDT
Moon 5:29 AM CDT 7:43 PM CDT
Length of Visible Light 15h 13m
Length of Day
14h 14m
Tomorrow will be 1m 36s shorter.
Waning Crescent, 2% of the Moon is Illuminated
Today
Waning Crescent
Jul 26
New
Aug 3
First Quarter
Aug 10
Full
Aug 17
Last Quarter

Today's Extremes

State Highs State Lows

Community

WunderPhotos

Upload Photos

1,737,266 photos uploaded!

Nearby

Snow Depth

Station Depth Elevation
No new snow has been reported.

Earthquake Activity

City Distance Mag. Time & Date
Perry, Oklahoma 67 miles 2.9 7:28 AM CDT
2014-07-20
Harper, Kansas 19 miles 3.3 7:24 AM CDT
2014-07-20
Harper, Kansas 10 miles 3.0 7:24 PM CDT
2014-07-19
Spencer, Oklahoma 117 miles 2.7 4:56 PM CDT
2014-07-18
Minimum magnitude displayed is 2.5.

Coastal Water Temperatures

Place Temperature
No Stations Reporting

Nearby Weather Stations

Station Location Temp. Heat Index Dew Point Humidity Wind Precip. Elev Updated Type
MesoWest PERTH , Mayfield, KS 76 °F 74 °F - - North  at  - 0.00 in / hr 1228 ft 12:45 AM CDT MADIS
Caldwell Hess, Caldwell, KS 78.7 °F 82 °F 72 °F 79% NW  at  3.0 mph 0.00 in / hr 1165 ft 2:03 AM CDT Normal
KanOkla, Caldwell, KS 78.4 °F 81 °F 71 °F 78% SSW  at  3.0 mph 0.00 in / hr 1168 ft 2:15 AM CDT Normal
Dove Haven, Clearwater, KS 76.4 °F 77 °F 72 °F 85% South  at  10.0 mph 0.00 in / hr 1394 ft 2:15 AM CDT Normal

Show More Stations Show Fewer Stations